createdAt,value
2017-07-09T00:00:54.548Z,23.36
2017-07-09T00:02:23.881Z,23.31
2017-07-09T00:03:45.842Z,23.3
2017-07-09T00:05:16.744Z,23.3
2017-07-09T00:06:31.306Z,23.28
2017-07-09T00:07:45.838Z,23.25
2017-07-09T00:09:00.077Z,23.22
2017-07-09T00:11:43.582Z,23.19
2017-07-09T00:12:58.034Z,23.2
2017-07-09T00:14:12.182Z,23.19
2017-07-09T00:15:26.481Z,23.18
2017-07-09T00:16:40.123Z,23.17
2017-07-09T00:17:53.737Z,23.17
2017-07-09T00:19:08.010Z,23.2
2017-07-09T00:20:21.487Z,23.23
2017-07-09T00:21:35.950Z,23.29
2017-07-09T00:22:49.852Z,23.36
2017-07-09T00:24:03.529Z,23.42
2017-07-09T00:25:32.431Z,23.52
2017-07-09T00:26:46.870Z,23.59
2017-07-09T00:28:00.709Z,23.65
2017-07-09T00:29:14.217Z,23.69
2017-07-09T00:30:28.180Z,23.75
2017-07-09T00:31:42.465Z,23.8
2017-07-09T00:32:56.081Z,23.85
2017-07-09T00:34:10.009Z,23.91
2017-07-09T00:35:24.860Z,23.95
2017-07-09T00:36:38.769Z,23.97
2017-07-09T00:37:53.303Z,23.99
2017-07-09T00:39:07.074Z,23.98
2017-07-09T00:40:20.873Z,23.99
2017-07-09T00:41:35.149Z,23.98
2017-07-09T00:42:48.991Z,23.99
2017-07-09T00:44:03.518Z,23.97
2017-07-09T00:45:16.912Z,23.98
2017-07-09T00:46:30.519Z,23.96
2017-07-09T00:47:44.825Z,23.94
2017-07-09T00:48:58.278Z,23.92
2017-07-09T00:50:12.662Z,23.85
2017-07-09T00:51:26.108Z,23.81
2017-07-09T00:52:39.996Z,23.76
2017-07-09T00:53:53.449Z,23.74
2017-07-09T00:55:07.539Z,23.74
2017-07-09T00:56:22.457Z,23.73
2017-07-09T00:57:36.031Z,23.74
2017-07-09T00:58:50.203Z,23.76
2017-07-09T01:00:04.038Z,23.75
2017-07-09T01:01:18.030Z,23.77
2017-07-09T01:02:32.038Z,23.77
2017-07-09T01:03:45.750Z,23.79
2017-07-09T01:04:59.213Z,23.81
2017-07-09T01:06:13.234Z,23.83
2017-07-09T01:07:27.036Z,23.84
2017-07-09T01:08:41.093Z,23.83
2017-07-09T01:09:54.922Z,23.83
2017-07-09T01:11:09.398Z,23.84
2017-07-09T01:12:23.004Z,23.84
2017-07-09T01:13:37.071Z,23.84
2017-07-09T01:14:51.143Z,23.83
2017-07-09T01:16:04.973Z,23.82
2017-07-09T01:17:18.737Z,23.81
2017-07-09T01:18:32.704Z,23.82
2017-07-09T01:19:46.615Z,23.84
2017-07-09T01:21:00.680Z,23.86
2017-07-09T01:22:14.855Z,23.87
2017-07-09T01:23:28.360Z,23.88
2017-07-09T01:24:56.685Z,23.9
2017-07-09T01:26:10.610Z,23.92
2017-07-09T01:27:24.341Z,23.92
2017-07-09T01:28:38.129Z,23.92
2017-07-09T01:29:51.651Z,23.91
2017-07-09T01:31:05.193Z,23.92
2017-07-09T01:32:18.892Z,23.92
2017-07-09T01:33:32.962Z,23.94
2017-07-09T01:34:47.291Z,23.94
2017-07-09T01:36:00.883Z,23.97
2017-07-09T01:37:14.888Z,23.98
2017-07-09T01:38:29.688Z,23.97
2017-07-09T01:39:43.702Z,23.92
2017-07-09T01:40:57.800Z,23.85
2017-07-09T01:42:11.860Z,23.78
2017-07-09T01:43:31.885Z,23.67
2017-07-09T01:44:46.280Z,23.58
2017-07-09T01:45:59.961Z,23.46
2017-07-09T01:47:13.476Z,23.34
2017-07-09T01:48:27.318Z,23.21
2017-07-09T01:49:41.253Z,23.1
2017-07-09T01:50:55.277Z,23
2017-07-09T01:52:09.320Z,22.91
2017-07-09T01:53:23.969Z,22.81
2017-07-09T01:54:37.421Z,22.73
2017-07-09T01:55:51.077Z,22.67
2017-07-09T01:57:04.861Z,22.6
2017-07-09T01:58:33.381Z,22.53
2017-07-09T02:01:16.305Z,22.44
2017-07-09T02:02:30.406Z,22.41
2017-07-09T02:03:59.013Z,22.37
2017-07-09T02:05:12.613Z,22.35
2017-07-09T02:06:26.044Z,22.32
2017-07-09T02:07:39.559Z,22.33
2017-07-09T02:08:53.229Z,22.31
2017-07-09T02:10:06.888Z,22.27
2017-07-09T02:11:21.053Z,22.22
2017-07-09T02:12:35.052Z,22.17
2017-07-09T02:13:48.588Z,22.14
2017-07-09T02:15:02.296Z,22.1
2017-07-09T02:16:16.645Z,22.07
2017-07-09T02:17:30.344Z,22.03
2017-07-09T02:18:43.801Z,22
2017-07-09T02:19:57.873Z,21.97
2017-07-09T02:21:11.922Z,21.97
2017-07-09T02:22:26.442Z,21.96
2017-07-09T02:23:40.283Z,21.95
2017-07-09T02:24:54.082Z,21.92
2017-07-09T02:26:07.920Z,21.9
2017-07-09T02:27:22.009Z,21.88
2017-07-09T02:28:36.319Z,21.85
2017-07-09T02:29:50.322Z,21.83
2017-07-09T02:31:04.042Z,21.79
2017-07-09T02:32:17.514Z,21.77
2017-07-09T02:33:31.576Z,21.74
2017-07-09T02:34:45.833Z,21.71
2017-07-09T02:35:59.337Z,21.69
2017-07-09T02:37:19.990Z,21.68
2017-07-09T02:38:33.398Z,21.66
2017-07-09T02:39:47.122Z,21.64
2017-07-09T02:41:00.764Z,21.63
2017-07-09T02:42:14.224Z,21.61
2017-07-09T02:43:28.156Z,21.59
2017-07-09T02:44:41.568Z,21.57
2017-07-09T02:46:10.066Z,21.53
2017-07-09T02:47:23.530Z,21.51
2017-07-09T02:48:37.297Z,21.48
2017-07-09T02:49:50.980Z,21.47
2017-07-09T02:51:04.386Z,21.44
2017-07-09T02:52:18.060Z,21.42
2017-07-09T02:53:31.565Z,21.4
2017-07-09T02:54:44.983Z,21.39
2017-07-09T02:55:58.817Z,21.38
2017-07-09T02:57:12.285Z,21.36
2017-07-09T02:58:26.011Z,21.33
2017-07-09T02:59:39.468Z,21.31
2017-07-09T03:00:52.890Z,21.29
2017-07-09T03:02:06.734Z,21.27
2017-07-09T03:03:20.756Z,21.24
2017-07-09T03:04:35.046Z,21.22
2017-07-09T03:05:48.437Z,21.2
2017-07-09T03:07:01.856Z,21.18
2017-07-09T03:08:15.519Z,21.17
2017-07-09T03:09:28.999Z,21.17
2017-07-09T03:10:42.701Z,21.16
2017-07-09T03:11:56.138Z,21.16
2017-07-09T03:13:09.912Z,21.16
2017-07-09T03:14:23.711Z,21.14
2017-07-09T03:15:37.137Z,21.15
2017-07-09T03:16:51.738Z,21.15
2017-07-09T03:18:05.512Z,21.16
2017-07-09T03:19:19.157Z,21.19
2017-07-09T03:20:32.840Z,21.19
2017-07-09T03:21:46.575Z,21.19
2017-07-09T03:23:00.289Z,21.18
2017-07-09T03:24:13.691Z,21.19
2017-07-09T03:25:28.161Z,21.18
2017-07-09T03:26:41.822Z,21.18
2017-07-09T03:27:55.234Z,21.16
2017-07-09T03:29:08.910Z,21.15
2017-07-09T03:30:22.487Z,21.14
2017-07-09T03:31:36.662Z,21.12
2017-07-09T03:32:50.697Z,21.09
2017-07-09T03:34:04.120Z,21.08
2017-07-09T03:35:17.940Z,21.07
2017-07-09T03:36:31.673Z,21.05
2017-07-09T03:37:46.184Z,21.05
2017-07-09T03:39:00.012Z,21.03
2017-07-09T03:40:13.432Z,21.04
2017-07-09T03:41:42.317Z,21.05
2017-07-09T03:42:55.778Z,21.07
2017-07-09T03:44:09.481Z,21.1
2017-07-09T03:45:23.306Z,21.14
2017-07-09T03:46:36.963Z,21.18
2017-07-09T03:47:50.420Z,21.23
2017-07-09T03:49:04.182Z,21.28
2017-07-09T03:50:17.900Z,21.33
2017-07-09T03:51:31.821Z,21.38
2017-07-09T03:52:45.494Z,21.44
2017-07-09T03:53:58.929Z,21.51
2017-07-09T03:55:12.384Z,21.59
2017-07-09T03:56:26.108Z,21.66
2017-07-09T03:57:39.738Z,21.73
2017-07-09T03:58:53.546Z,21.79
2017-07-09T04:00:07.358Z,21.89
2017-07-09T04:01:20.830Z,21.95
2017-07-09T04:02:35.620Z,22.01
2017-07-09T04:03:49.350Z,22.03
2017-07-09T04:05:03.136Z,22.07
2017-07-09T04:06:16.553Z,22.12
2017-07-09T04:07:30.579Z,22.18
2017-07-09T04:08:44.522Z,22.25
2017-07-09T04:09:58.244Z,22.43
2017-07-09T04:11:11.898Z,22.73
2017-07-09T04:12:40.198Z,23
2017-07-09T04:13:53.936Z,23.02
2017-07-09T04:15:07.600Z,23.09
2017-07-09T04:16:21.342Z,23.12
2017-07-09T04:17:35.200Z,23.14
2017-07-09T04:18:48.582Z,23.3
2017-07-09T04:20:16.821Z,23.74
2017-07-09T04:21:30.848Z,24.29
2017-07-09T04:22:44.310Z,24.86
2017-07-09T04:23:58.311Z,25.26
2017-07-09T04:25:11.726Z,25.54
2017-07-09T04:26:25.131Z,25.88
2017-07-09T04:27:38.876Z,25.86
2017-07-09T04:28:52.370Z,25.85
2017-07-09T04:30:06.501Z,25.86
2017-07-09T04:31:20.231Z,25.8
2017-07-09T04:32:33.787Z,25.79
2017-07-09T04:33:48.114Z,25.76
2017-07-09T04:35:01.819Z,25.74
2017-07-09T04:36:15.476Z,25.66
2017-07-09T04:37:28.883Z,25.59
2017-07-09T04:38:42.341Z,25.54
2017-07-09T04:39:56.010Z,25.69
2017-07-09T04:41:09.434Z,26.1
2017-07-09T04:42:23.155Z,26.8
2017-07-09T04:43:36.603Z,26.95
2017-07-09T04:44:50.673Z,26.83
2017-07-09T04:46:04.354Z,26.8
2017-07-09T04:47:18.103Z,26.99
2017-07-09T04:48:31.976Z,27.07
2017-07-09T04:49:45.384Z,26.97
2017-07-09T04:50:58.804Z,26.82
2017-07-09T04:52:12.460Z,26.72
2017-07-09T04:53:26.215Z,26.65
2017-07-09T04:54:40.118Z,26.81
2017-07-09T04:55:54.454Z,27.38
2017-07-09T04:57:07.859Z,27.42
2017-07-09T04:58:21.548Z,27.24
2017-07-09T04:59:35.373Z,27.29
2017-07-09T05:00:49.366Z,27.67
2017-07-09T05:02:07.450Z,28.05
2017-07-09T05:03:55.343Z,28.33
2017-07-09T05:05:29.831Z,28.48
2017-07-09T05:07:15.729Z,29.36
2017-07-09T05:08:31.659Z,30.25
2017-07-09T05:09:45.923Z,31.48
2017-07-09T05:10:59.774Z,32.71
2017-07-09T05:12:13.418Z,33.49
2017-07-09T05:13:26.841Z,33.48
2017-07-09T05:14:40.349Z,33.15
2017-07-09T05:16:09.465Z,33.3
2017-07-09T05:17:23.140Z,33.64
2017-07-09T05:18:37.535Z,34.31
2017-07-09T05:19:51.091Z,34.43
2017-07-09T05:21:05.399Z,34.39
2017-07-09T05:22:19.808Z,34.53
2017-07-09T05:23:33.471Z,35.21
2017-07-09T05:24:47.265Z,35.6
2017-07-09T05:26:00.734Z,35.57
2017-07-09T05:27:14.614Z,36.13
2017-07-09T05:28:28.766Z,36.88
2017-07-09T05:29:42.778Z,37
2017-07-09T05:30:56.355Z,37.26
2017-07-09T05:32:09.782Z,37.02
2017-07-09T05:33:23.361Z,36.46
2017-07-09T05:34:37.104Z,35.2
2017-07-09T05:35:51.444Z,34.31
2017-07-09T05:37:04.899Z,33.69
2017-07-09T05:38:18.336Z,33.25
2017-07-09T05:39:32.260Z,33.03
2017-07-09T05:40:45.920Z,32.57
2017-07-09T05:41:59.747Z,32.03
2017-07-09T05:43:13.839Z,31.52
2017-07-09T05:44:28.779Z,31.08
2017-07-09T05:45:42.536Z,30.74
2017-07-09T05:46:56.337Z,30.48
2017-07-09T05:48:10.237Z,30.32
2017-07-09T05:49:23.966Z,30.17
2017-07-09T05:50:37.522Z,30.03
2017-07-09T05:51:50.990Z,29.92
2017-07-09T05:53:04.676Z,29.84
2017-07-09T05:54:18.333Z,29.71
2017-07-09T05:55:32.184Z,29.63
2017-07-09T05:56:45.920Z,29.54
2017-07-09T05:57:59.506Z,29.48
2017-07-09T05:59:13.235Z,29.37
2017-07-09T06:00:26.884Z,29.27
2017-07-09T06:01:40.290Z,29.2
2017-07-09T06:02:54.057Z,29.12
2017-07-09T06:04:07.506Z,29.04
2017-07-09T06:05:21.549Z,28.95
2017-07-09T06:06:50.215Z,28.87
2017-07-09T06:08:03.706Z,28.79
2017-07-09T06:09:17.679Z,28.71
2017-07-09T06:10:46.337Z,28.58
2017-07-09T06:12:00.447Z,28.47
2017-07-09T06:13:14.589Z,28.41
2017-07-09T06:14:28.323Z,28.35
2017-07-09T06:15:41.758Z,28.29
2017-07-09T06:16:55.432Z,28.23
2017-07-09T06:18:09.169Z,28.19
2017-07-09T06:19:22.581Z,28.13
2017-07-09T06:20:36.374Z,28.08
2017-07-09T06:21:49.980Z,28.02
2017-07-09T06:23:03.705Z,27.96
2017-07-09T06:24:17.382Z,27.91
2017-07-09T06:25:30.979Z,27.88
2017-07-09T06:26:44.500Z,27.83
2017-07-09T06:27:58.422Z,27.78
2017-07-09T06:29:12.417Z,27.79
2017-07-09T06:30:26.420Z,27.79
2017-07-09T06:31:40.152Z,27.81
2017-07-09T06:32:53.564Z,27.83
2017-07-09T06:34:22.639Z,27.81
2017-07-09T06:35:37.053Z,27.8
2017-07-09T06:36:51.042Z,27.79
2017-07-09T06:38:04.554Z,27.79
2017-07-09T06:39:17.972Z,27.76
2017-07-09T06:40:31.888Z,27.73
2017-07-09T06:41:45.294Z,27.7
2017-07-09T06:42:59.147Z,27.67
2017-07-09T06:44:27.755Z,27.63
2017-07-09T06:45:41.519Z,27.58
2017-07-09T06:46:55.096Z,27.55
2017-07-09T06:48:09.040Z,27.54
2017-07-09T06:49:22.692Z,27.53
2017-07-09T06:50:51.328Z,27.55
2017-07-09T06:52:04.799Z,27.57
2017-07-09T06:53:19.146Z,27.58
2017-07-09T06:54:33.179Z,27.58
2017-07-09T06:55:46.625Z,27.6
2017-07-09T06:57:00.133Z,27.6
2017-07-09T06:58:13.657Z,27.58
2017-07-09T06:59:27.493Z,27.58
2017-07-09T07:00:41.617Z,27.56
2017-07-09T07:01:55.197Z,27.53
2017-07-09T07:03:09.743Z,27.43
2017-07-09T07:04:23.609Z,27.34
2017-07-09T07:05:37.234Z,27.25
2017-07-09T07:06:52.228Z,27.21
2017-07-09T07:08:20.930Z,27.21
2017-07-09T07:09:35.353Z,27.24
2017-07-09T07:10:49.276Z,27.29
2017-07-09T07:12:03.197Z,27.36
2017-07-09T07:13:16.971Z,27.42
2017-07-09T07:14:30.455Z,27.46
2017-07-09T07:15:44.564Z,27.47
2017-07-09T07:16:57.998Z,27.5
2017-07-09T07:18:12.296Z,27.54
2017-07-09T07:19:25.739Z,27.55
2017-07-09T07:20:40.737Z,27.57
2017-07-09T07:21:54.780Z,27.59
2017-07-09T07:23:08.315Z,27.61
2017-07-09T07:24:22.225Z,27.64
2017-07-09T07:25:36.643Z,27.67
2017-07-09T07:26:50.229Z,27.7
2017-07-09T07:28:04.743Z,27.68
2017-07-09T07:29:18.371Z,27.66
2017-07-09T07:30:32.340Z,27.63
2017-07-09T07:31:46.304Z,27.62
2017-07-09T07:33:00.727Z,27.59
2017-07-09T07:34:14.745Z,27.57
2017-07-09T07:35:28.966Z,27.58
2017-07-09T07:36:43.382Z,27.58
2017-07-09T07:37:56.910Z,27.62
2017-07-09T07:39:10.375Z,27.65
2017-07-09T07:40:24.458Z,27.68
2017-07-09T07:41:38.033Z,27.71
2017-07-09T07:42:51.785Z,27.7
2017-07-09T07:44:05.517Z,27.68
2017-07-09T07:45:19.427Z,27.68
2017-07-09T07:46:33.504Z,27.7
2017-07-09T07:47:47.367Z,27.73
2017-07-09T07:49:01.144Z,27.78
2017-07-09T07:50:14.935Z,27.83
2017-07-09T07:51:29.404Z,27.9
2017-07-09T07:52:43.626Z,27.94
2017-07-09T07:54:12.906Z,28
2017-07-09T07:55:26.803Z,28.05
2017-07-09T07:56:40.626Z,28.04
2017-07-09T07:57:54.779Z,28.01
2017-07-09T07:59:09.547Z,27.97
2017-07-09T08:00:23.098Z,27.96
2017-07-09T08:01:37.565Z,27.95
2017-07-09T08:02:51.196Z,27.95
2017-07-09T08:04:05.685Z,27.92
2017-07-09T08:05:19.322Z,27.91
2017-07-09T08:06:33.641Z,27.94
2017-07-09T08:07:47.950Z,27.99
2017-07-09T08:09:17.056Z,28.08
2017-07-09T08:10:33.503Z,28.19
2017-07-09T08:11:53.338Z,28.26
2017-07-09T08:14:35.516Z,28.34
2017-07-09T08:15:50.815Z,28.31
2017-07-09T08:17:04.750Z,28.3
2017-07-09T08:18:18.437Z,28.3
2017-07-09T08:19:32.149Z,28.31
2017-07-09T08:20:45.679Z,28.33
2017-07-09T08:22:14.758Z,28.34
2017-07-09T08:23:33.201Z,28.37
2017-07-09T08:24:47.332Z,28.37
2017-07-09T08:26:47.646Z,28.38
2017-07-09T08:28:02.329Z,28.44
2017-07-09T08:29:18.547Z,28.48
2017-07-09T08:30:37.267Z,28.56
2017-07-09T08:31:52.433Z,28.63
2017-07-09T08:33:08.928Z,28.71
2017-07-09T08:34:23.381Z,28.76
2017-07-09T08:35:52.975Z,28.79
2017-07-09T08:37:07.289Z,28.82
2017-07-09T08:38:21.554Z,28.89
2017-07-09T08:39:35.077Z,28.96
2017-07-09T08:40:49.544Z,29.04
2017-07-09T08:42:03.796Z,29.1
2017-07-09T08:43:20.133Z,29.15
2017-07-09T08:44:34.946Z,29.16
2017-07-09T08:45:48.575Z,29.17
2017-07-09T08:47:17.410Z,29.18
2017-07-09T08:48:32.749Z,29.22
2017-07-09T08:49:47.538Z,29.22
2017-07-09T08:51:01.522Z,29.24
2017-07-09T08:52:15.036Z,29.26
2017-07-09T08:53:29.139Z,29.29
2017-07-09T08:54:43.592Z,29.33
2017-07-09T08:55:57.289Z,29.39
2017-07-09T08:57:11.476Z,29.44
2017-07-09T08:58:25.550Z,29.51
2017-07-09T08:59:54.756Z,29.56
2017-07-09T09:01:10.112Z,29.57
2017-07-09T09:02:24.820Z,29.6
2017-07-09T09:03:40.648Z,29.63
